Time;durP1;ratioP1;P1;durP2;ratioP2;P2;SDS_P1;SDS_P2;PMS_P1;PMS_P2;Temp;Humidity;BMP_temperature;BMP_pressure;BME280_temperature;BME280_humidity;BME280_pressure;Samples;Min_cycle;Max_cycle;Signal;HPM_P1;HPM_P2
2022/06/17 06:57:51;;;;;;;;;41.25;36.25;;;;;19.80;72.20;99619.66;5091832;27;13599;-75
2022/06/17 07:00:24;;;;;;;;;31.50;30.25;;;;;20.10;69.48;99614.13;5059063;28;8855;-75
2022/06/17 07:02:53;;;;;;;;;30.75;29.25;;;;;20.47;66.92;99610.84;5046455;28;8856;-73
2022/06/17 07:05:23;;;;;;;;;27.00;26.50;;;;;20.72;65.45;99612.53;5066709;28;8995;-74
2022/06/17 07:07:51;;;;;;;;;25.00;23.25;;;;;20.81;63.94;99614.81;5035562;28;8854;-74
2022/06/17 07:10:24;;;;;;;;;26.75;22.25;;;;;20.82;63.86;99603.31;5083923;28;8878;-74
2022/06/17 07:12:55;;;;;;;;;26.00;25.25;;;;;20.85;63.06;99616.44;5018692;28;8986;-74
2022/06/17 07:15:25;;;;;;;;;21.80;21.00;;;;;20.84;63.15;99601.44;5083477;28;8936;-75
2022/06/17 07:17:55;;;;;;;;;23.80;21.40;;;;;21.13;61.45;99600.19;5058924;28;8910;-76
2022/06/17 07:20:25;;;;;;;;;25.80;23.20;;;;;21.27;60.09;99607.56;5050153;28;8852;-77
2022/06/17 07:22:54;;;;;;;;;18.80;18.00;;;;;21.37;59.63;99597.41;5084731;28;8860;-77
2022/06/17 07:25:23;;;;;;;;;18.80;16.60;;;;;21.60;57.73;99601.72;5085131;28;8890;-77
2022/06/17 07:27:51;;;;;;;;;23.00;22.00;;;;;21.93;57.84;99603.78;5028768;28;8852;-78
2022/06/17 07:30:22;;;;;;;;;21.20;20.20;;;;;22.42;55.62;99592.63;5071046;28;8844;-77
2022/06/17 07:32:52;;;;;;;;;22.20;21.40;;;;;22.61;53.89;99601.44;5039683;28;8990;-77
2022/06/17 07:35:21;;;;;;;;;20.20;20.00;;;;;22.45;55.01;99603.97;5037624;28;8836;-76
2022/06/17 07:40:47;;;;;;;;;29.00;29.00;;;;;22.68;56.50;99596.66;4992099;28;8869;-76
2022/06/17 07:43:18;;;;;;;;;32.00;31.25;;;;;22.57;57.00;99603.38;5014243;28;9018;-76
2022/06/17 07:45:49;;;;;;;;;31.50;30.75;;;;;22.78;57.13;99601.47;5014511;28;8866;-76
2022/06/17 07:48:19;;;;;;;;;30.75;30.00;;;;;22.85;57.67;99596.69;4985840;28;8842;-76
2022/06/17 07:50:47;;;;;;;;;28.50;28.50;;;;;23.07;56.15;99600.97;4994797;28;9727;-78
2022/06/17 07:53:16;;;;;;;;;19.75;18.50;;;;;23.19;55.36;99612.75;5021556;28;8858;-76
2022/06/17 07:55:46;;;;;;;;;25.00;24.20;;;;;23.27;55.50;99602.56;5004168;28;8863;-78
2022/06/17 07:58:15;;;;;;;;;22.40;22.40;;;;;23.79;54.52;99601.66;5022854;28;8920;-78
2022/06/17 08:00:45;;;;;;;;;22.00;20.60;;;;;23.84;53.92;99618.25;5002676;28;8873;-75
2022/06/17 08:03:17;;;;;;;;;23.40;23.20;;;;;23.68;54.31;99612.84;4988327;28;8850;-75
2022/06/17 08:05:51;;;;;;;;;28.00;24.00;;;;;23.88;54.04;99603.81;4997459;28;8893;-77
2022/06/17 08:08:22;;;;;;;;;24.25;22.25;;;;;23.78;54.23;99623.84;4962508;28;8941;-78
2022/06/17 08:10:53;;;;;;;;;21.60;21.40;;;;;23.82;54.16;99613.00;4992368;28;8955;-78
2022/06/17 08:13:22;;;;;;;;;24.60;23.00;;;;;23.66;54.04;99614.72;4990565;28;8936;-77
2022/06/17 08:15:53;;;;;;;;;22.40;22.20;;;;;23.81;54.02;99616.59;4991093;28;8904;-76
2022/06/17 08:18:24;;;;;;;;;20.60;20.20;;;;;23.60;53.71;99617.72;5043923;28;8922;-76
2022/06/17 08:20:54;;;;;;;;;17.80;17.80;;;;;23.59;52.88;99614.22;5040978;28;8950;-77
2022/06/17 08:23:23;;;;;;;;;20.60;20.60;;;;;23.92;51.44;99616.88;5037836;28;8878;-78
2022/06/17 08:25:52;;;;;;;;;18.40;17.80;;;;;24.09;50.81;99618.59;5013638;28;8880;-76
2022/06/17 08:28:24;;;;;;;;;14.80;14.20;;;;;24.52;49.36;99618.03;5016332;28;8876;-78
2022/06/17 08:30:57;;;;;;;;;17.60;16.00;;;;;24.98;47.58;99615.34;5027158;28;8868;-79
2022/06/17 08:33:29;;;;;;;;;15.00;14.20;;;;;25.09;47.45;99610.25;5010967;28;8886;-79
2022/06/17 08:36:16;;;;;;;;;13.20;13.20;;;;;25.48;45.88;99608.81;5025730;28;8861;-77
2022/06/17 08:38:49;;;;;;;;;14.80;14.80;;;;;25.73;46.01;99609.97;5018651;28;8999;-78
2022/06/17 08:41:26;;;;;;;;;14.80;14.80;;;;;25.39;46.35;99614.72;5008732;28;8888;-76
2022/06/17 08:44:21;;;;;;;;;16.00;14.00;;;;;25.47;46.40;99622.25;5022493;28;8987;-78
2022/06/17 08:47:08;;;;;;;;;17.40;16.40;;;;;24.82;47.47;99630.53;5007388;28;8873;-78
2022/06/17 08:49:59;;;;;;;;;15.60;15.60;;;;;24.62;47.84;99618.38;5009568;28;8868;-78
2022/06/17 08:52:50;;;;;;;;;14.40;14.40;;;;;24.65;48.47;99621.72;5025080;28;8922;-79
2022/06/17 08:55:27;;;;;;;;;17.60;17.20;;;;;24.47;48.40;99620.94;5010230;28;8899;-78
2022/06/17 08:58:02;;;;;;;;;17.40;17.00;;;;;24.51;49.35;99637.59;4994299;28;8914;-77
2022/06/17 09:00:43;;;;;;;;;16.20;15.40;;;;;24.36;49.49;99638.47;4993123;28;8873;-78
2022/06/17 09:03:27;;;;;;;;;15.80;15.80;;;;;24.47;49.32;99634.25;5014967;28;8890;-77
2022/06/17 09:06:07;;;;;;;;;16.00;12.80;;;;;24.72;49.23;99630.22;5048051;28;8864;-78
2022/06/17 09:08:51;;;;;;;;;15.40;14.20;;;;;25.13;47.90;99634.94;5065129;28;8891;-79
2022/06/17 09:11:22;;;;;;;;;15.40;15.20;;;;;24.80;48.21;99643.09;5048388;28;8857;-79
2022/06/17 09:14:09;;;;;;;;;12.60;12.60;;;;;25.01;48.72;99633.88;5046677;28;9601;-78
2022/06/17 09:16:47;;;;;;;;;14.00;13.00;;;;;25.62;47.41;99631.16;5040901;28;8869;-78
2022/06/17 09:19:25;;;;;;;;;11.40;11.40;;;;;26.03;46.56;99625.94;5051640;28;8868;-77
2022/06/17 09:21:58;;;;;;;;;14.00;13.00;;;;;26.36;45.78;99635.41;4986204;28;9012;-78
2022/06/17 09:24:32;;;;;;;;;16.40;13.20;;;;;26.59;44.39;99623.22;5029306;28;8889;-77
2022/06/17 09:27:04;;;;;;;;;13.20;13.20;;;;;26.98;44.37;99624.22;5020796;28;8877;-76
2022/06/17 09:29:38;;;;;;;;;16.20;15.00;;;;;27.31;43.53;99619.38;5041779;28;8861;-77
2022/06/17 09:32:15;;;;;;;;;14.80;14.80;;;;;26.85;44.21;99631.38;5047811;28;8965;-78
2022/06/17 09:34:50;;;;;;;;;15.20;14.40;;;;;27.31;43.46;99630.09;5042986;28;8957;-77
2022/06/17 09:37:35;;;;;;;;;13.20;13.20;;;;;27.61;42.45;99637.81;5041400;28;8986;-77
2022/06/17 09:40:10;;;;;;;;;14.40;13.20;;;;;27.65;42.47;99641.16;5008263;28;8859;-77
2022/06/17 09:42:47;;;;;;;;;18.00;17.00;;;;;26.45;45.45;99652.69;5046464;28;9023;-78
2022/06/17 09:45:26;;;;;;;;;17.60;17.60;;;;;26.58;45.69;99660.78;5011272;28;8863;-77
2022/06/17 09:48:03;;;;;;;;;14.60;14.60;;;;;26.58;46.21;99650.94;4947580;28;8875;-76
2022/06/17 09:50:37;;;;;;;;;16.80;15.00;;;;;27.15;45.49;99641.81;5043652;28;8849;-78
2022/06/17 09:53:14;;;;;;;;;15.80;14.80;;;;;26.69;43.91;99642.22;5044683;28;8902;-76
2022/06/17 09:55:48;;;;;;;;;11.40;9.80;;;;;27.14;43.92;99636.56;4975239;28;8866;-79
2022/06/17 09:58:22;;;;;;;;;15.00;14.60;;;;;26.75;44.53;99639.16;5031741;28;8870;-79
2022/06/17 10:00:54;;;;;;;;;15.60;15.40;;;;;27.19;44.36;99648.69;5024285;28;8878;-79
2022/06/17 10:03:26;;;;;;;;;16.00;15.60;;;;;27.31;43.79;99651.50;4997700;28;9003;-77
2022/06/17 10:06:13;;;;;;;;;17.80;15.20;;;;;27.54;43.39;99650.81;4978183;28;8987;-77
2022/06/17 10:08:56;;;;;;;;;13.40;13.40;;;;;27.12;43.10;99651.88;5043418;28;8860;-76
2022/06/17 10:11:33;;;;;;;;;15.40;14.20;;;;;27.27;43.41;99658.06;5026419;28;8905;-76
2022/06/17 10:14:18;;;;;;;;;15.80;13.00;;;;;27.59;43.35;99661.19;5030969;28;8877;-76
2022/06/17 10:19:54;;;;;;;;;11.00;9.80;;;;;27.35;41.63;99664.59;5057207;28;8895;-76
2022/06/17 10:22:36;;;;;;;;;11.80;11.00;;;;;26.56;41.99;99662.66;5030466;28;8893;-77
2022/06/17 10:25:22;;;;;;;;;12.80;11.60;;;;;26.31;44.28;99645.53;5038269;28;8862;-78
2022/06/17 10:28:06;;;;;;;;;12.60;12.00;;;;;26.69;44.03;99660.09;4970023;28;8874;-78
2022/06/17 10:30:42;;;;;;;;;11.40;11.20;;;;;26.99;43.68;99647.38;4986650;28;8977;-76
2022/06/17 10:33:14;;;;;;;;;11.00;11.00;;;;;26.90;43.92;99642.63;4975974;28;8858;-80
2022/06/17 10:35:44;;;;;;;;;12.60;11.40;;;;;26.62;44.09;99659.66;4985633;28;8847;-78
2022/06/17 10:38:18;;;;;;;;;10.80;10.80;;;;;26.13;44.64;99647.59;4981152;28;8912;-77
2022/06/17 10:40:49;;;;;;;;;13.20;10.60;;;;;26.67;44.16;99660.19;4979044;28;8858;-77
2022/06/17 10:43:22;;;;;;;;;11.80;11.80;;;;;26.89;43.56;99645.41;4970034;28;8849;-77
2022/06/17 10:45:52;;;;;;;;;11.20;10.00;;;;;26.83;43.63;99660.91;4986948;28;8862;-80
2022/06/17 10:48:33;;;;;;;;;13.40;11.80;;;;;26.95;41.95;99643.16;4967524;28;8889;-78
2022/06/17 10:51:10;;;;;;;;;11.00;10.20;;;;;27.26;42.04;99656.31;4970333;28;8989;-76
2022/06/17 10:53:45;;;;;;;;;9.00;8.00;;;;;26.89;42.16;99662.31;4970671;28;8854;-77
2022/06/17 10:56:26;;;;;;;;;10.80;9.40;;;;;26.62;42.41;99649.78;4953296;28;8857;-75
2022/06/17 10:58:57;;;;;;;;;9.00;7.80;;;;;26.33;44.01;99653.47;4934474;28;8882;-79
2022/06/17 11:01:52;;;;;;;;;8.40;8.40;;;;;25.96;44.25;99661.16;4984970;28;8899;-79
2022/06/17 11:04:26;;;;;;;;;10.00;10.00;;;;;26.30;43.96;99657.19;4994247;28;8874;-80
2022/06/17 11:07:00;;;;;;;;;8.60;8.00;;;;;26.49;43.66;99648.84;5018012;28;8892;-78
2022/06/17 11:09:34;;;;;;;;;5.80;5.80;;;;;26.43;43.32;99647.44;5033786;28;8921;-80
2022/06/17 11:12:16;;;;;;;;;10.00;9.80;;;;;26.55;43.12;99639.56;5033283;28;8886;-78
2022/06/17 11:14:52;;;;;;;;;8.00;8.00;;;;;26.36;42.08;99650.59;5049613;28;8845;-80
2022/06/17 11:17:28;;;;;;;;;7.60;7.60;;;;;26.15;42.58;99651.00;5000101;28;8879;-81
2022/06/17 11:20:02;;;;;;;;;5.60;5.60;;;;;26.19;42.67;99646.34;5009799;28;8866;-80
2022/06/17 11:22:53;;;;;;;;;11.00;10.00;;;;;26.02;42.78;99640.22;5052575;28;8889;-80
2022/06/17 11:25:27;;;;;;;;;7.00;7.00;;;;;25.89;42.81;99641.94;5033132;28;8884;-80
2022/06/17 11:28:00;;;;;;;;;8.40;8.20;;;;;26.08;43.21;99643.47;4999403;28;8969;-82
2022/06/17 11:30:34;;;;;;;;;7.40;7.20;;;;;26.52;43.04;99634.41;5051126;28;8827;-79
2022/06/17 11:33:03;;;;;;;;;7.00;7.00;;;;;26.42;42.45;99639.50;5034638;28;8878;-79
2022/06/17 11:35:40;;;;;;;;;8.20;8.00;;;;;26.39;42.43;99632.53;4985937;28;9019;-81
2022/06/17 11:38:14;;;;;;;;;11.20;10.40;;;;;26.48;42.64;99627.53;5017138;28;8851;-80
2022/06/17 11:41:07;;;;;;;;;9.00;9.00;;;;;26.65;41.93;99635.34;5035918;28;8834;-80
2022/06/17 11:43:42;;;;;;;;;8.00;8.00;;;;;27.05;41.07;99632.69;5055506;28;8878;-79
2022/06/17 11:46:14;;;;;;;;;9.20;8.80;;;;;27.04;40.66;99631.84;5035153;28;8874;-81
2022/06/17 11:48:48;;;;;;;;;8.40;8.40;;;;;26.62;41.07;99627.53;5054579;28;8941;-79
2022/06/17 11:51:27;;;;;;;;;8.40;8.40;;;;;26.77;41.06;99629.19;5013615;28;8859;-81
2022/06/17 11:54:03;;;;;;;;;8.20;8.00;;;;;27.23;40.41;99610.00;4990459;28;8861;-81
2022/06/17 11:56:35;;;;;;;;;8.40;8.00;;;;;27.36;40.27;99606.53;5009316;28;8984;-82
2022/06/17 11:59:14;;;;;;;;;7.00;7.00;;;;;27.86;38.96;99612.81;5030064;28;9002;-81
2022/06/17 12:01:49;;;;;;;;;9.00;8.60;;;;;28.07;38.56;99604.25;5032694;28;8966;-81
2022/06/17 12:04:40;;;;;;;;;9.00;9.00;;;;;28.42;38.05;99608.88;5000649;28;8852;-82
2022/06/17 12:07:30;;;;;;;;;8.00;8.00;;;;;28.05;38.50;99598.97;4990461;28;8848;-80
2022/06/17 12:10:12;;;;;;;;;9.60;9.40;;;;;28.13;38.92;99595.78;4995718;28;8934;-81
2022/06/17 12:12:42;;;;;;;;;11.00;10.20;;;;;28.75;38.10;99590.28;5026116;28;9646;-79
2022/06/17 12:15:26;;;;;;;;;8.60;8.60;;;;;28.43;38.56;99595.34;5021884;28;8960;-80
2022/06/17 12:17:57;;;;;;;;;11.40;10.40;;;;;28.28;39.02;99596.44;5012117;28;8845;-79
2022/06/17 12:20:42;;;;;;;;;8.20;7.80;;;;;28.61;38.73;99592.28;5031093;28;8864;-81
2022/06/17 12:23:18;;;;;;;;;6.40;6.40;;;;;28.29;38.11;99593.66;5048516;28;8888;-81
2022/06/17 12:25:55;;;;;;;;;7.80;7.80;;;;;28.33;38.28;99596.97;5059725;28;8882;-81
2022/06/17 12:28:36;;;;;;;;;8.00;7.40;;;;;28.28;38.10;99593.75;5036292;28;8995;-82
2022/06/17 12:31:16;;;;;;;;;7.20;7.20;;;;;28.19;37.58;99590.81;5022162;28;8872;-78
2022/06/17 12:33:56;;;;;;;;;8.40;8.40;;;;;28.31;37.67;99582.81;5045416;28;8874;-76
2022/06/17 12:36:31;;;;;;;;;8.80;8.00;;;;;28.44;37.33;99575.56;5035802;28;8860;-80
2022/06/17 12:39:14;;;;;;;;;9.60;9.60;;;;;29.22;36.42;99576.88;5051596;28;8860;-77
2022/06/17 12:41:50;;;;;;;;;7.60;7.60;;;;;30.02;34.79;99567.91;5042517;28;9027;-78
2022/06/17 12:44:31;;;;;;;;;11.80;10.80;;;;;30.09;34.61;99576.31;5058477;28;8848;-76
2022/06/17 12:47:10;;;;;;;;;9.40;7.60;;;;;29.50;34.96;99570.19;5066353;28;9602;-77
2022/06/17 12:55:45;;;;;;;;;9.60;9.60;;;;;29.24;35.60;99556.13;5050641;28;10125;-78
2022/06/17 12:58:25;;;;;;;;;7.80;7.80;;;;;29.72;35.13;99560.44;5031865;28;8831;-77
2022/06/17 13:00:59;;;;;;;;;8.80;8.80;;;;;29.07;35.61;99565.47;5059926;28;8834;-79
2022/06/17 13:04:03;;;;;;;;;8.00;8.00;;;;;29.88;34.57;99563.63;5064239;28;8845;-78
2022/06/17 13:06:43;;;;;;;;;8.60;8.60;;;;;30.64;33.44;99565.53;5045330;28;8861;-78
2022/06/17 13:09:23;;;;;;;;;8.40;8.40;;;;;30.12;33.94;99557.25;5017977;28;8860;-78
2022/06/17 13:12:06;;;;;;;;;7.60;7.20;;;;;29.52;34.20;99549.44;5024894;28;8971;-77
2022/06/17 13:14:46;;;;;;;;;10.60;10.60;;;;;29.80;34.16;99559.84;5036448;28;8970;-76
2022/06/17 13:17:23;;;;;;;;;7.80;7.80;;;;;30.09;33.95;99549.41;5029997;28;8873;-75
2022/06/17 13:19:58;;;;;;;;;7.40;7.40;;;;;30.37;33.28;99541.78;4968953;28;8884;-76
2022/06/17 13:22:34;;;;;;;;;7.60;6.40;;;;;31.32;31.97;99544.47;5027153;28;8900;-79
2022/06/17 13:25:16;;;;;;;;;6.80;6.20;;;;;32.32;30.99;99535.59;5031180;28;8869;-75
2022/06/17 13:27:50;;;;;;;;;9.80;8.80;;;;;32.07;29.82;99541.56;5012990;28;8942;-76
2022/06/17 13:30:23;;;;;;;;;9.80;9.80;;;;;31.58;30.67;99533.28;5030611;28;9000;-77
2022/06/17 13:32:59;;;;;;;;;6.40;6.00;;;;;31.53;31.00;99532.81;5015133;28;8964;-77
2022/06/17 13:35:33;;;;;;;;;9.80;8.80;;;;;30.88;31.08;99533.84;5038533;28;9694;-77
2022/06/17 13:38:09;;;;;;;;;7.00;7.00;;;;;31.08;29.96;99529.47;5054547;28;8860;-75
2022/06/17 13:40:47;;;;;;;;;5.20;5.20;;;;;31.11;30.06;99522.94;5013371;28;9004;-77
2022/06/17 13:43:21;;;;;;;;;9.20;9.20;;;;;30.12;31.50;99530.34;5067471;28;8949;-77
2022/06/17 13:45:58;;;;;;;;;8.20;7.20;;;;;29.84;31.83;99523.69;5063845;28;8840;-76
2022/06/17 13:48:32;;;;;;;;;7.00;7.00;;;;;30.17;31.23;99519.19;5049121;28;8848;-77
2022/06/17 13:51:19;;;;;;;;;8.00;7.80;;;;;29.81;31.53;99514.03;5054850;28;8982;-76
2022/06/17 13:54:02;;;;;;;;;10.40;9.20;;;;;29.84;31.65;99524.53;5058798;28;8854;-77
2022/06/17 13:56:43;;;;;;;;;5.60;5.60;;;;;29.62;32.23;99514.63;5046041;28;8864;-76
2022/06/17 13:59:34;;;;;;;;;8.80;8.00;;;;;28.95;33.69;99526.16;5047043;28;8858;-78
2022/06/17 14:02:23;;;;;;;;;8.00;8.00;;;;;28.71;34.36;99535.09;5018255;28;8885;-76
2022/06/17 14:05:14;;;;;;;;;7.80;7.20;;;;;27.80;35.94;99540.91;5029991;28;8856;-77
2022/06/17 14:08:06;;;;;;;;;7.00;5.60;;;;;27.32;37.23;99532.75;5030264;28;8865;-77
2022/06/17 14:10:41;;;;;;;;;8.20;7.80;;;;;27.35;37.40;99537.84;5013656;28;8876;-75
2022/06/17 14:13:21;;;;;;;;;8.40;8.00;;;;;27.65;36.84;99526.78;5013752;28;8939;-76
2022/06/17 14:15:55;;;;;;;;;8.20;7.40;;;;;27.41;36.00;99530.25;5048014;28;8868;-76
2022/06/17 14:18:28;;;;;;;;;6.80;6.80;;;;;27.49;35.45;99526.19;5013068;28;8950;-75
2022/06/17 14:21:06;;;;;;;;;7.80;7.80;;;;;27.71;34.40;99515.66;5025892;28;8957;-76
2022/06/17 14:23:46;;;;;;;;;10.00;10.00;;;;;28.00;33.80;99524.25;5035336;28;8943;-76
2022/06/17 14:26:54;;;;;;;;;8.60;8.60;;;;;28.24;33.23;99518.03;5067659;28;8878;-75
2022/06/17 14:29:25;;;;;;;;;7.20;7.20;;;;;27.33;35.09;99521.03;5051584;28;8844;-75
2022/06/17 14:31:56;;;;;;;;;8.00;8.00;;;;;27.44;34.58;99513.09;5049414;28;8859;-77
2022/06/17 14:34:27;;;;;;;;;9.80;7.80;;;;;27.29;34.28;99514.19;4988062;28;8858;-78
2022/06/17 14:37:10;;;;;;;;;10.40;9.40;;;;;27.15;34.71;99523.19;4981820;28;9009;-80
2022/06/17 14:40:05;;;;;;;;;9.40;8.20;;;;;27.16;33.85;99516.84;4962010;28;8945;-77
2022/06/17 14:42:52;;;;;;;;;7.20;7.20;;;;;27.08;33.23;99503.16;4996990;28;8868;-76
2022/06/17 14:45:50;;;;;;;;;8.00;8.00;;;;;27.36;32.16;99502.09;4992093;28;9003;-76
2022/06/17 14:48:38;;;;;;;;;8.00;8.00;;;;;27.72;31.60;99500.41;4983208;28;8856;-76
2022/06/17 14:51:36;;;;;;;;;7.40;7.00;;;;;28.04;30.94;99497.25;4979245;28;8897;-77
2022/06/17 14:54:30;;;;;;;;;11.00;11.00;;;;;28.39;30.51;99502.63;4949529;28;9613;-77
2022/06/17 14:57:07;;;;;;;;;7.00;7.00;;;;;28.55;29.70;99503.22;4924535;29;8908;-75
2022/06/17 14:59:40;;;;;;;;;9.00;7.00;;;;;28.78;29.05;99505.97;4904808;29;8868;-77
2022/06/17 15:02:21;;;;;;;;;6.40;5.60;;;;;27.72;28.96;99505.78;4909526;29;9023;-76
2022/06/17 15:04:54;;;;;;;;;7.00;7.00;;;;;27.74;29.07;99515.41;4893956;29;8864;-76
2022/06/17 15:07:27;;;;;;;;;5.60;4.80;;;;;27.87;29.09;99510.00;4915208;29;8884;-76
2022/06/17 15:09:59;;;;;;;;;6.00;6.00;;;;;28.26;29.46;99523.28;4911132;29;8884;-76
2022/06/17 15:12:33;;;;;;;;;5.40;5.40;;;;;28.44;29.21;99518.41;4931031;28;8988;-78
2022/06/17 15:15:12;;;;;;;;;6.00;6.00;;;;;28.64;28.51;99509.72;4965966;28;9724;-78
2022/06/17 15:17:47;;;;;;;;;7.00;7.00;;;;;28.56;28.58;99504.94;4950934;28;9010;-76
2022/06/17 15:20:19;;;;;;;;;6.60;6.60;;;;;28.60;27.72;99504.69;4969564;28;8855;-76
2022/06/17 15:23:09;;;;;;;;;7.80;7.80;;;;;28.47;28.03;99515.47;4969621;28;8847;-75
2022/06/17 15:25:53;;;;;;;;;5.80;5.80;;;;;28.57;28.86;99521.91;4951108;28;8845;-76
2022/06/17 15:28:31;;;;;;;;;8.20;8.20;;;;;28.13;29.57;99518.00;4950348;28;8891;-75
2022/06/17 15:31:18;;;;;;;;;7.40;6.80;;;;;27.60;30.71;99512.88;4963061;28;8854;-76
2022/06/17 15:33:50;;;;;;;;;7.60;7.60;;;;;27.20;31.46;99516.53;4974114;28;8850;-75
2022/06/17 15:36:23;;;;;;;;;8.00;8.00;;;;;26.96;31.67;99518.25;5024188;28;8838;-76
2022/06/17 15:38:54;;;;;;;;;8.60;8.60;;;;;26.84;32.18;99518.13;5051179;28;8877;-77
2022/06/17 15:41:26;;;;;;;;;8.20;8.20;;;;;26.31;34.29;99517.19;5040539;28;8885;-76
2022/06/17 15:43:59;;;;;;;;;8.80;8.00;;;;;25.89;34.85;99521.69;5051023;28;8866;-79
2022/06/17 15:46:32;;;;;;;;;7.00;6.60;;;;;25.79;35.87;99516.09;5046813;28;8866;-75
2022/06/17 15:49:05;;;;;;;;;10.00;8.00;;;;;25.42;36.92;99515.72;5013250;28;8852;-78
2022/06/17 15:51:38;;;;;;;;;8.20;8.20;;;;;25.24;37.64;99535.59;5006406;28;8844;-75
2022/06/17 15:54:08;;;;;;;;;10.60;8.20;;;;;25.31;37.42;99528.88;5004518;28;8864;-76
2022/06/17 15:56:42;;;;;;;;;10.40;9.60;;;;;25.09;38.53;99527.53;5013405;28;9752;-76
2022/06/17 15:59:18;;;;;;;;;13.20;13.20;;;;;24.94;39.17;99535.59;5060332;28;8850;-74
2022/06/17 16:01:51;;;;;;;;;12.40;11.80;;;;;25.13;39.24;99530.88;5053623;28;8858;-74
2022/06/17 16:04:26;;;;;;;;;13.60;13.60;;;;;25.11;39.71;99527.44;5065686;28;8842;-77
2022/06/17 16:07:00;;;;;;;;;12.40;12.40;;;;;25.26;39.54;99525.66;5063282;28;8844;-76
2022/06/17 16:09:41;;;;;;;;;10.00;10.00;;;;;25.11;39.67;99522.09;5051206;28;8871;-76
2022/06/17 16:12:31;;;;;;;;;11.00;10.20;;;;;25.18;39.75;99519.88;5065468;28;9586;-75
2022/06/17 16:15:13;;;;;;;;;8.60;8.60;;;;;25.25;39.53;99522.13;5056892;28;8857;-76
2022/06/17 16:17:44;;;;;;;;;11.20;10.00;;;;;25.19;39.25;99517.13;5024666;28;8860;-75
2022/06/17 16:20:30;;;;;;;;;11.00;10.80;;;;;25.03;40.07;99511.88;5062381;28;8874;-79
2022/06/17 16:22:58;;;;;;;;;12.40;12.00;;;;;25.13;40.14;99511.34;4950377;28;8847;-82
2022/06/17 16:25:35;;;;;;;;;11.00;11.00;;;;;25.13;40.06;99512.19;4977649;28;8975;-67
2022/06/17 16:28:13;;;;;;;;;13.00;11.40;;;;;25.14;40.22;99515.69;4974751;28;8871;-66
2022/06/17 16:30:56;;;;;;;;;17.60;16.60;;;;;25.53;39.55;99515.06;4968103;28;8898;-76
2022/06/17 16:33:28;;;;;;;;;16.20;16.20;;;;;26.06;38.23;99520.63;4937009;28;8882;-79
2022/06/17 16:36:00;;;;;;;;;14.20;11.20;;;;;26.40;37.39;99513.06;4960905;28;8981;-77
2022/06/17 16:38:39;;;;;;;;;11.00;11.00;;;;;26.63;36.82;99514.22;4981093;28;8872;-79
2022/06/17 16:44:26;;;;;;;;;11.20;11.00;;;;;27.60;35.26;99512.88;4949226;28;8845;-80
2022/06/17 16:46:58;;;;;;;;;11.40;11.00;;;;;27.76;35.47;99515.31;4950269;28;8895;-78
2022/06/17 16:49:30;;;;;;;;;16.00;14.40;;;;;28.11;34.93;99518.13;4917928;28;8860;-79
2022/06/17 16:52:03;;;;;;;;;11.00;11.00;;;;;27.62;35.53;99508.28;4902595;28;8877;-78
2022/06/17 16:54:35;;;;;;;;;12.60;12.60;;;;;27.39;36.38;99525.97;4918673;28;8860;-79
2022/06/17 16:57:11;;;;;;;;;12.40;11.20;;;;;27.17;37.05;99530.13;4933722;28;8952;-78
2022/06/17 16:59:40;;;;;;;;;14.00;13.60;;;;;26.76;37.81;99522.28;4921323;28;8918;-78
2022/06/17 17:02:12;;;;;;;;;11.80;11.80;;;;;26.51;37.75;99517.69;5027287;28;8950;-77
2022/06/17 17:04:41;;;;;;;;;9.60;9.60;;;;;26.23;38.31;99532.91;4994245;28;8953;-76
2022/06/17 17:07:11;;;;;;;;;11.20;11.20;;;;;26.04;39.14;99534.09;5011300;28;8896;-79
2022/06/17 17:09:40;;;;;;;;;13.80;13.00;;;;;26.16;39.18;99529.78;5027455;28;8903;-80
2022/06/17 17:12:10;;;;;;;;;9.80;9.80;;;;;26.23;39.30;99535.56;5027895;28;9627;-79
2022/06/17 17:14:39;;;;;;;;;11.20;11.20;;;;;26.23;39.70;99533.75;4995265;28;8853;-77
2022/06/17 17:17:15;;;;;;;;;15.80;15.00;;;;;26.61;38.94;99541.06;4994530;28;8923;-77
2022/06/17 17:19:45;;;;;;;;;11.80;11.80;;;;;26.88;38.67;99537.50;5032013;28;8840;-78
2022/06/17 17:22:19;;;;;;;;;13.40;12.00;;;;;26.99;38.17;99534.06;5043057;28;8856;-77
2022/06/17 17:24:50;;;;;;;;;13.00;11.40;;;;;27.03;38.01;99533.78;5029502;28;8901;-76
2022/06/17 17:27:19;;;;;;;;;12.60;11.80;;;;;27.18;37.54;99534.53;5029711;28;8851;-78
2022/06/17 17:29:48;;;;;;;;;12.40;12.00;;;;;27.07;37.99;99538.91;5012679;28;8899;-78
2022/06/17 17:32:19;;;;;;;;;12.20;11.80;;;;;27.16;38.14;99546.28;5029468;28;8867;-78
2022/06/17 17:34:48;;;;;;;;;12.40;12.00;;;;;27.21;38.14;99553.03;5029500;28;9613;-78
2022/06/17 17:37:17;;;;;;;;;15.20;13.60;;;;;27.06;37.92;99554.09;5026942;28;8860;-78
2022/06/17 17:39:46;;;;;;;;;14.00;13.00;;;;;26.96;37.56;99558.38;5030451;28;8858;-79
2022/06/17 17:42:15;;;;;;;;;12.20;10.80;;;;;26.96;36.93;99555.72;5030590;28;8866;-76
2022/06/17 17:44:44;;;;;;;;;12.40;11.80;;;;;26.92;35.40;99568.44;4965819;28;8951;-77
2022/06/17 17:47:24;;;;;;;;;10.60;10.60;;;;;26.81;35.64;99565.63;5050160;28;8849;-77
2022/06/17 17:50:01;;;;;;;;;12.80;11.40;;;;;26.84;35.70;99574.31;5051201;28;8914;-75
2022/06/17 17:52:30;;;;;;;;;3.00;3.00;;;;;26.84;35.30;99568.97;5030788;28;8874;-76
2022/06/17 17:54:59;;;;;;;;;11.80;10.80;;;;;26.56;35.93;99579.75;4987630;28;8977;-78
2022/06/17 17:57:27;;;;;;;;;10.40;10.20;;;;;26.54;35.74;99584.34;5007928;28;8850;-79
2022/06/17 17:59:59;;;;;;;;;9.40;9.40;;;;;26.54;35.04;99603.06;5007632;28;8873;-77
2022/06/17 18:02:29;;;;;;;;;5.80;5.80;;;;;26.10;35.49;99602.31;5007836;28;8870;-79
2022/06/17 18:05:00;;;;;;;;;9.60;9.60;;;;;26.15;35.53;99605.56;4951488;28;8997;-80
2022/06/17 18:07:29;;;;;;;;;8.40;8.40;;;;;26.09;36.00;99605.97;4967812;28;8948;-79
2022/06/17 18:09:58;;;;;;;;;10.80;10.80;;;;;26.25;36.07;99598.66;4919543;28;8854;-79
2022/06/17 18:12:27;;;;;;;;;9.20;9.00;;;;;26.04;36.42;99602.72;4967671;28;8875;-80
2022/06/17 18:14:56;;;;;;;;;8.60;8.60;;;;;25.90;36.77;99608.94;4942064;28;8838;-80
2022/06/17 18:17:24;;;;;;;;;8.80;8.80;;;;;25.87;36.96;99612.63;4955203;28;8969;-79
2022/06/17 18:19:53;;;;;;;;;7.40;7.40;;;;;25.80;36.99;99607.78;4971018;28;8949;-80
2022/06/17 18:22:23;;;;;;;;;9.00;8.20;;;;;25.66;37.18;99617.50;4987438;28;8857;-79
2022/06/17 18:24:52;;;;;;;;;10.40;10.40;;;;;25.58;37.02;99621.63;4987303;28;8940;-79
2022/06/17 18:27:23;;;;;;;;;9.60;8.60;;;;;25.38;37.53;99626.34;4971154;28;8862;-79
2022/06/17 18:29:51;;;;;;;;;9.20;8.80;;;;;25.40;37.21;99634.28;4986924;28;8877;-78
2022/06/17 18:32:21;;;;;;;;;8.20;8.20;;;;;25.07;38.39;99636.16;4971604;28;8874;-81
2022/06/17 18:34:50;;;;;;;;;7.80;7.80;;;;;25.17;38.02;99651.63;4971375;28;8850;-78
2022/06/17 18:37:26;;;;;;;;;10.00;10.00;;;;;25.09;38.29;99654.75;5028046;28;9581;-79
2022/06/17 18:39:55;;;;;;;;;9.00;9.00;;;;;24.89;38.77;99651.44;5028603;28;8917;-79
2022/06/17 18:42:41;;;;;;;;;10.20;9.60;;;;;24.70;39.28;99656.97;5027934;28;8856;-79
2022/06/17 18:45:13;;;;;;;;;8.20;8.20;;;;;24.55;39.57;99659.66;5044026;28;8840;-80
2022/06/17 18:47:43;;;;;;;;;10.80;8.60;;;;;24.66;39.07;99666.09;5028135;28;8847;-82
2022/06/17 18:50:19;;;;;;;;;10.80;9.00;;;;;24.54;38.83;99666.81;5028815;28;8973;-79
2022/06/17 18:52:50;;;;;;;;;8.60;8.40;;;;;24.54;38.87;99668.59;5027312;28;8863;-83
2022/06/17 18:55:20;;;;;;;;;7.40;7.20;;;;;24.52;38.92;99677.56;5027358;28;8875;-80
2022/06/17 18:57:50;;;;;;;;;8.80;8.20;;;;;24.46;38.82;99679.66;5028743;28;8936;-79
2022/06/17 19:00:22;;;;;;;;;8.60;6.60;;;;;24.44;38.80;99682.44;4994056;28;9648;-80
2022/06/17 19:02:53;;;;;;;;;9.80;9.80;;;;;24.31;38.94;99692.91;5027404;28;8986;-81
2022/06/17 19:05:25;;;;;;;;;7.80;7.80;;;;;24.16;39.41;99699.09;5028547;28;8863;-79
2022/06/17 19:19:06;;;;;;;;;14.20;13.40;;;;;24.21;45.22;99725.47;5027472;28;9602;-80
2022/06/17 19:21:37;;;;;;;;;16.60;15.80;;;;;24.07;46.43;99729.72;5014300;28;8933;-81
2022/06/17 19:24:10;;;;;;;;;12.40;12.40;;;;;24.01;46.57;99737.22;5031185;28;8886;-80
2022/06/17 19:26:40;;;;;;;;;13.00;12.40;;;;;23.78;46.02;99730.38;4987002;28;8879;-80
2022/06/17 19:29:10;;;;;;;;;15.00;13.20;;;;;23.96;45.60;99726.78;4987271;28;8852;-81
2022/06/17 19:31:43;;;;;;;;;11.40;10.40;;;;;23.77;44.21;99739.31;4983899;28;8852;-81
2022/06/17 19:34:17;;;;;;;;;11.20;11.20;;;;;23.78;44.88;99725.94;4967476;28;8879;-81